createdAt,value
2018-12-17T00:00:44.100Z,7.00
2018-12-17T00:03:15.243Z,6.40
2018-12-17T00:05:46.024Z,7.10
2018-12-17T00:08:16.716Z,7.63
2018-12-17T00:10:47.724Z,6.53
2018-12-17T00:13:18.615Z,7.10
2018-12-17T00:15:49.760Z,7.67
2018-12-17T00:18:21.983Z,7.00
2018-12-17T00:20:52.856Z,7.47
2018-12-17T00:23:23.993Z,7.00
2018-12-17T00:25:54.770Z,7.73
2018-12-17T00:28:25.550Z,6.70
2018-12-17T00:30:56.675Z,7.10
2018-12-17T00:33:27.391Z,7.03
2018-12-17T00:36:00.008Z,7.33
2018-12-17T00:38:30.788Z,7.30
2018-12-17T00:41:01.671Z,6.40
2018-12-17T00:43:33.057Z,6.97
2018-12-17T00:46:03.843Z,6.83
2018-12-17T00:48:34.656Z,6.87
2018-12-17T00:51:06.624Z,6.83
2018-12-17T00:53:37.704Z,6.97
2018-12-17T00:56:08.591Z,7.10
2018-12-17T00:58:39.559Z,6.57
2018-12-17T01:01:10.233Z,6.43
2018-12-17T01:03:40.993Z,6.67
2018-12-17T01:06:11.774Z,6.47
2018-12-17T01:08:42.975Z,6.13
2018-12-17T01:11:13.733Z,5.90
2018-12-17T01:13:44.682Z,6.83
2018-12-17T01:16:15.613Z,6.40
2018-12-17T01:18:46.363Z,6.10
2018-12-17T01:21:17.698Z,6.00
2018-12-17T01:23:49.403Z,6.17
2018-12-17T01:26:23.455Z,7.00
2018-12-17T01:28:54.486Z,5.83
2018-12-17T01:31:25.347Z,5.40
2018-12-17T01:33:56.058Z,5.53
2018-12-17T01:36:27.006Z,6.23
2018-12-17T01:38:57.789Z,5.93
2018-12-17T01:41:28.595Z,6.00
2018-12-17T01:43:59.312Z,6.20
2018-12-17T01:46:30.653Z,5.90
2018-12-17T01:49:01.365Z,5.87
2018-12-17T01:51:32.151Z,6.00
2018-12-17T01:54:02.879Z,5.73
2018-12-17T01:56:33.605Z,5.77
2018-12-17T01:59:04.904Z,5.37
2018-12-17T02:01:35.673Z,5.67
2018-12-17T02:04:06.344Z,6.03
2018-12-17T02:06:37.154Z,5.70
2018-12-17T02:09:09.043Z,4.93
2018-12-17T02:11:39.755Z,5.07
2018-12-17T02:14:10.585Z,5.03
2018-12-17T02:16:41.460Z,5.60
2018-12-17T02:19:12.758Z,5.40
2018-12-17T02:21:43.788Z,5.03
2018-12-17T02:24:15.061Z,5.23
2018-12-17T02:26:45.879Z,4.97
2018-12-17T02:29:16.667Z,6.20
2018-12-17T02:31:47.675Z,5.30
2018-12-17T02:34:18.458Z,5.03
2018-12-17T02:36:49.150Z,5.17
2018-12-17T02:39:19.762Z,4.90
2018-12-17T02:41:50.430Z,5.47
2018-12-17T02:44:21.923Z,5.77
2018-12-17T02:46:53.024Z,5.47
2018-12-17T02:49:24.265Z,5.00
2018-12-17T02:51:55.202Z,5.10
2018-12-17T02:54:26.247Z,4.63
2018-12-17T02:56:57.479Z,4.93
2018-12-17T02:59:29.148Z,4.87
2018-12-17T03:01:59.826Z,4.77
2018-12-17T03:04:30.552Z,5.03
2018-12-17T03:07:01.359Z,4.90
2018-12-17T03:09:32.216Z,4.87
2018-12-17T03:12:03.023Z,5.20
2018-12-17T03:14:34.877Z,4.80
2018-12-17T03:17:05.913Z,5.13
2018-12-17T03:19:38.167Z,4.70
2018-12-17T03:22:08.830Z,4.80
2018-12-17T03:24:39.668Z,5.23
2018-12-17T03:27:10.492Z,4.57
2018-12-17T03:29:41.183Z,5.23
2018-12-17T03:32:11.884Z,5.23
2018-12-17T03:34:42.899Z,4.70
2018-12-17T03:37:13.562Z,5.00
2018-12-17T03:39:44.262Z,4.77
2018-12-17T03:42:14.939Z,4.93
2018-12-17T03:44:45.606Z,4.70
2018-12-17T03:47:16.306Z,4.60
2018-12-17T03:49:47.604Z,4.33
2018-12-17T03:52:19.090Z,3.90
2018-12-17T03:54:50.069Z,4.17
2018-12-17T03:57:21.127Z,4.43
2018-12-17T03:59:51.802Z,3.80
2018-12-17T04:02:22.825Z,4.27
2018-12-17T04:04:54.208Z,4.17
2018-12-17T04:07:26.375Z,3.70
2018-12-17T04:09:57.397Z,3.53
2018-12-17T04:12:28.038Z,4.00
2018-12-17T04:14:58.780Z,4.30
2018-12-17T04:17:29.441Z,4.27
2018-12-17T04:20:00.142Z,3.63
2018-12-17T04:22:30.820Z,3.97
2018-12-17T04:25:01.699Z,3.50
2018-12-17T04:27:32.635Z,3.60
2018-12-17T04:30:03.972Z,3.20
2018-12-17T04:32:34.695Z,3.43
2018-12-17T04:35:06.622Z,3.40
2018-12-17T04:37:37.391Z,3.80
2018-12-17T04:40:08.514Z,3.50
2018-12-17T04:42:39.376Z,3.23
2018-12-17T04:45:10.048Z,3.70
2018-12-17T04:47:42.215Z,3.40
2018-12-17T04:50:13.140Z,3.67
2018-12-17T04:52:43.895Z,3.30
2018-12-17T04:55:15.333Z,3.90
2018-12-17T04:57:46.917Z,3.60
2018-12-17T05:00:18.216Z,3.00
2018-12-17T05:02:49.033Z,3.00
2018-12-17T05:05:19.889Z,3.50
2018-12-17T05:07:50.793Z,3.30
2018-12-17T05:10:21.707Z,3.87
2018-12-17T05:12:52.726Z,3.47
2018-12-17T05:15:23.564Z,3.40
2018-12-17T05:17:54.546Z,3.90
2018-12-17T05:20:25.494Z,3.47
2018-12-17T05:22:56.166Z,3.87
2018-12-17T05:25:27.007Z,4.23
2018-12-17T05:27:57.820Z,3.60
2018-12-17T05:30:28.536Z,3.80
2018-12-17T05:33:00.073Z,3.97
2018-12-17T05:35:30.979Z,4.17
2018-12-17T05:38:01.582Z,3.80
2018-12-17T05:40:32.404Z,4.27
2018-12-17T05:43:04.092Z,4.13
2018-12-17T05:45:34.914Z,4.40
2018-12-17T05:48:05.921Z,3.70
2018-12-17T05:50:37.423Z,4.07
2018-12-17T05:53:08.228Z,3.77
2018-12-17T05:55:39.032Z,3.70
2018-12-17T05:58:09.645Z,4.00
2018-12-17T06:00:40.367Z,4.67
2018-12-17T06:03:11.103Z,3.93
2018-12-17T06:05:42.311Z,4.00
2018-12-17T06:08:13.644Z,3.63
2018-12-17T06:10:44.361Z,4.13
2018-12-17T06:13:15.156Z,4.30
2018-12-17T06:15:46.126Z,4.47
2018-12-17T06:18:18.373Z,3.97
2018-12-17T06:20:49.700Z,4.03
2018-12-17T06:23:20.414Z,3.40
2018-12-17T06:25:51.152Z,3.97
2018-12-17T06:28:21.856Z,3.90
2018-12-17T06:30:52.842Z,4.00
2018-12-17T06:33:23.542Z,3.53
2018-12-17T06:35:54.341Z,3.77
2018-12-17T06:38:25.103Z,3.70
2018-12-17T06:40:55.791Z,3.80
2018-12-17T06:43:26.845Z,3.33
2018-12-17T06:45:57.787Z,4.10
2018-12-17T06:48:28.835Z,3.93
2018-12-17T06:51:00.009Z,3.50
2018-12-17T06:53:30.723Z,3.77
2018-12-17T06:56:01.407Z,4.00
2018-12-17T06:58:32.408Z,3.63
2018-12-17T07:01:03.244Z,3.93
2018-12-17T07:03:34.175Z,3.90
2018-12-17T07:06:05.426Z,4.00
2018-12-17T07:08:36.299Z,3.67
2018-12-17T07:11:07.451Z,3.93
2018-12-17T07:13:38.170Z,4.67
2018-12-17T07:16:09.524Z,4.13
2018-12-17T07:18:40.317Z,4.50
2018-12-17T07:21:11.034Z,4.27
2018-12-17T07:23:42.224Z,3.80
2018-12-17T07:26:13.058Z,4.27
2018-12-17T07:28:44.512Z,4.23
2018-12-17T07:31:15.549Z,4.43
2018-12-17T07:33:53.022Z,4.60
2018-12-17T07:36:23.838Z,4.10
2018-12-17T07:38:54.904Z,3.83
2018-12-17T07:41:26.031Z,4.03
2018-12-17T07:43:56.804Z,4.57
2018-12-17T07:46:28.770Z,5.17
2018-12-17T07:48:59.598Z,5.47
2018-12-17T07:51:30.427Z,4.87
2018-12-17T07:54:01.239Z,4.27
2018-12-17T07:56:32.125Z,4.60
2018-12-17T07:59:03.362Z,4.53
2018-12-17T08:01:35.052Z,4.33
2018-12-17T08:04:05.931Z,4.30
2018-12-17T08:06:36.724Z,4.30
2018-12-17T08:09:09.580Z,4.63
2018-12-17T08:11:40.632Z,4.43
2018-12-17T08:14:11.450Z,5.07
2018-12-17T08:16:43.425Z,4.30
2018-12-17T08:19:15.550Z,4.50
2018-12-17T08:21:46.226Z,4.70
2018-12-17T08:24:17.026Z,4.80
2018-12-17T08:26:49.634Z,4.30
2018-12-17T08:29:20.368Z,4.07
2018-12-17T08:31:51.183Z,4.50
2018-12-17T08:34:22.040Z,4.20
2018-12-17T08:36:53.175Z,3.97
2018-12-17T08:39:24.261Z,4.70
2018-12-17T08:41:55.442Z,3.77
2018-12-17T08:44:26.626Z,4.20
2018-12-17T08:46:57.396Z,4.50
2018-12-17T08:49:28.437Z,3.63
2018-12-17T08:51:59.376Z,4.43
2018-12-17T08:54:30.151Z,4.07
2018-12-17T08:57:01.466Z,4.27
2018-12-17T08:59:32.579Z,4.27
2018-12-17T09:02:03.865Z,4.40
2018-12-17T09:04:34.657Z,3.67
2018-12-17T09:07:05.522Z,4.27
2018-12-17T09:09:36.224Z,3.77
2018-12-17T09:12:07.463Z,3.80
2018-12-17T09:14:38.370Z,4.40
2018-12-17T09:17:09.665Z,4.40
2018-12-17T09:19:40.431Z,4.50
2018-12-17T09:22:11.257Z,3.67
2018-12-17T09:24:42.045Z,4.60
2018-12-17T09:27:13.961Z,6.30
2018-12-17T09:29:44.743Z,4.97
2018-12-17T09:32:15.521Z,4.97
2018-12-17T09:34:46.503Z,4.00
2018-12-17T09:37:17.424Z,4.10
2018-12-17T09:39:48.106Z,4.20
2018-12-17T09:42:19.127Z,4.43
2018-12-17T09:44:50.190Z,5.03
2018-12-17T09:47:21.662Z,3.93
2018-12-17T09:49:52.528Z,4.20
2018-12-17T09:52:23.358Z,3.83
2018-12-17T09:57:34.157Z,4.93
2018-12-17T10:00:06.958Z,4.33
2018-12-17T10:02:37.688Z,3.63
2018-12-17T10:05:10.391Z,3.57
2018-12-17T10:07:41.307Z,3.67
2018-12-17T10:10:12.582Z,3.77
2018-12-17T10:12:43.352Z,3.47
2018-12-17T10:15:14.431Z,3.53
2018-12-17T10:17:45.532Z,3.70
2018-12-17T10:20:16.414Z,3.63
2018-12-17T10:22:47.152Z,4.30
2018-12-17T10:25:18.311Z,3.87
2018-12-17T10:27:49.279Z,3.23
2018-12-17T10:30:20.022Z,3.83
2018-12-17T10:32:50.807Z,3.37
2018-12-17T10:35:21.788Z,3.83
2018-12-17T10:37:52.673Z,3.47
2018-12-17T10:40:23.791Z,4.03
2018-12-17T10:42:54.678Z,3.80
2018-12-17T10:45:25.667Z,4.27
2018-12-17T10:47:56.460Z,4.03
2018-12-17T10:50:27.277Z,4.03
2018-12-17T10:52:57.996Z,4.10
2018-12-17T10:55:28.743Z,3.70
2018-12-17T10:58:00.263Z,3.77
2018-12-17T11:01:35.318Z,3.40
2018-12-17T11:04:13.817Z,3.47
2018-12-17T11:06:45.458Z,4.30
2018-12-17T11:09:16.175Z,4.40
2018-12-17T11:11:47.215Z,4.20
2018-12-17T11:14:18.013Z,3.97
2018-12-17T11:16:48.907Z,4.80
2018-12-17T11:19:20.001Z,3.97
2018-12-17T11:21:51.949Z,4.47
2018-12-17T11:24:23.703Z,4.80
2018-12-17T11:26:54.561Z,4.60
2018-12-17T11:29:25.633Z,5.03
2018-12-17T11:31:57.488Z,4.73
2018-12-17T11:34:28.260Z,4.73
2018-12-17T11:36:59.577Z,4.50
2018-12-17T11:39:30.467Z,4.80
2018-12-17T11:42:01.346Z,4.60
2018-12-17T11:44:32.248Z,4.57
2018-12-17T11:47:03.098Z,4.43
2018-12-17T11:49:33.772Z,5.40
2018-12-17T11:52:04.750Z,4.70
2018-12-17T11:54:36.169Z,4.93
2018-12-17T11:58:13.222Z,4.60
2018-12-17T12:00:55.079Z,4.87
2018-12-17T12:03:26.870Z,4.57
2018-12-17T12:05:57.655Z,4.63
2018-12-17T12:08:28.438Z,3.97
2018-12-17T12:10:59.286Z,3.93
2018-12-17T12:13:30.249Z,4.23
2018-12-17T12:16:00.951Z,3.70
2018-12-17T12:18:31.866Z,3.63
2018-12-17T12:21:03.256Z,3.83
2018-12-17T12:23:34.535Z,3.47
2018-12-17T12:26:05.653Z,4.00
2018-12-17T12:28:36.769Z,3.80
2018-12-17T12:31:07.714Z,3.73
2018-12-17T12:33:38.648Z,3.40
2018-12-17T12:36:09.534Z,3.03
2018-12-17T12:38:40.268Z,3.23
2018-12-17T12:41:10.944Z,2.93
2018-12-17T12:43:42.411Z,3.73
2018-12-17T12:46:13.698Z,3.30
2018-12-17T12:48:44.703Z,3.10
2018-12-17T12:51:15.553Z,3.30
2018-12-17T12:53:46.568Z,2.97
2018-12-17T12:56:17.371Z,3.17
2018-12-17T12:58:48.153Z,2.90
2018-12-17T13:01:20.012Z,2.57
2018-12-17T13:03:50.696Z,3.17
2018-12-17T13:06:21.535Z,2.77
2018-12-17T13:08:52.490Z,2.63
2018-12-17T13:11:23.384Z,3.23
2018-12-17T13:13:54.231Z,2.53
2018-12-17T13:16:25.085Z,3.27
2018-12-17T13:18:56.000Z,2.63
2018-12-17T13:21:26.974Z,2.60
2018-12-17T13:23:58.254Z,3.10
2018-12-17T13:26:29.181Z,2.97
2018-12-17T13:29:00.066Z,2.90
2018-12-17T13:31:30.808Z,3.23
2018-12-17T13:34:01.766Z,2.90
2018-12-17T13:36:32.736Z,3.17
2018-12-17T13:39:05.162Z,3.30
2018-12-17T13:41:36.161Z,2.97
2018-12-17T13:44:07.064Z,2.97
2018-12-17T13:46:38.075Z,3.13
2018-12-17T13:49:08.982Z,3.17
2018-12-17T13:51:43.891Z,3.47
2018-12-17T13:54:15.496Z,4.23
2018-12-17T13:56:46.260Z,3.00
2018-12-17T13:59:17.174Z,3.30
2018-12-17T14:01:51.611Z,3.27
2018-12-17T14:04:21.442Z,3.13
2018-12-17T14:06:52.474Z,3.13
2018-12-17T14:09:25.444Z,3.30
2018-12-17T14:11:56.383Z,3.83
2018-12-17T14:14:28.017Z,3.27
2018-12-17T14:17:03.944Z,3.40
2018-12-17T14:19:34.707Z,3.23
2018-12-17T14:22:08.566Z,3.30
2018-12-17T14:24:39.323Z,3.33
2018-12-17T14:27:10.880Z,3.43
2018-12-17T14:29:41.826Z,3.00
2018-12-17T14:32:12.913Z,3.00
2018-12-17T14:34:43.964Z,2.87
2018-12-17T14:37:14.846Z,3.30
2018-12-17T14:39:45.719Z,2.97
2018-12-17T14:42:16.526Z,3.17
2018-12-17T14:44:47.810Z,3.30
2018-12-17T14:47:18.621Z,3.00
2018-12-17T14:49:49.696Z,3.10
2018-12-17T14:52:20.947Z,3.20
2018-12-17T14:54:51.797Z,3.30
2018-12-17T14:57:22.753Z,3.63
2018-12-17T14:59:53.798Z,2.97
2018-12-17T15:10:06.580Z,5.33
2018-12-17T15:12:37.396Z,3.50
2018-12-17T15:15:11.095Z,3.10
2018-12-17T15:17:41.964Z,3.17
2018-12-17T15:20:13.916Z,3.57
2018-12-17T15:22:44.817Z,3.40
2018-12-17T15:25:15.831Z,3.70
2018-12-17T15:27:47.051Z,3.17
2018-12-17T15:30:18.293Z,3.13
2018-12-17T15:32:49.454Z,4.83
2018-12-17T15:35:20.965Z,3.37
2018-12-17T15:37:51.820Z,3.47
2018-12-17T15:40:22.730Z,3.47
2018-12-17T15:42:54.289Z,2.93
2018-12-17T15:45:25.080Z,3.13
2018-12-17T15:47:56.992Z,3.47
2018-12-17T15:50:27.896Z,2.97
2018-12-17T15:52:58.746Z,3.37
2018-12-17T15:55:29.504Z,2.67
2018-12-17T15:58:00.459Z,2.87
2018-12-17T16:00:31.160Z,2.90
2018-12-17T16:03:02.208Z,2.67
2018-12-17T16:05:33.490Z,2.97
2018-12-17T16:08:04.483Z,3.07
2018-12-17T16:10:36.817Z,5.40
2018-12-17T16:13:07.759Z,3.70
2018-12-17T16:15:38.616Z,4.23
2018-12-17T16:18:09.357Z,3.70
2018-12-17T16:20:41.416Z,3.20
2018-12-17T16:23:12.491Z,3.67
2018-12-17T16:25:43.808Z,3.40
2018-12-17T16:28:14.517Z,2.80
2018-12-17T16:30:46.735Z,3.03
2018-12-17T16:33:17.612Z,2.53
2018-12-17T16:35:48.574Z,3.53
2018-12-17T16:38:19.369Z,3.60
2018-12-17T16:40:50.539Z,3.17
2018-12-17T16:43:21.443Z,3.23
2018-12-17T16:45:52.339Z,3.53
2018-12-17T16:48:23.248Z,3.37
2018-12-17T16:50:54.431Z,3.40
2018-12-17T16:53:25.435Z,3.77
2018-12-17T16:55:56.175Z,3.20
2018-12-17T16:58:27.676Z,3.73
2018-12-17T17:00:58.520Z,3.60
2018-12-17T17:03:29.518Z,4.07
2018-12-17T17:06:00.331Z,3.50
2018-12-17T17:08:31.242Z,3.57
2018-12-17T17:11:02.043Z,3.20
2018-12-17T17:13:32.929Z,4.13
2018-12-17T17:16:04.602Z,4.37
2018-12-17T17:18:35.413Z,3.77
2018-12-17T17:21:06.356Z,4.70
2018-12-17T17:23:37.232Z,3.63
2018-12-17T17:26:08.078Z,4.13
2018-12-17T17:28:39.161Z,4.27
2018-12-17T17:31:10.279Z,4.57
2018-12-17T17:33:41.380Z,4.43
2018-12-17T17:36:12.377Z,3.90
2018-12-17T17:38:43.688Z,3.53
2018-12-17T17:41:14.720Z,3.93
2018-12-17T17:43:45.502Z,3.70
2018-12-17T17:46:16.420Z,4.00
2018-12-17T17:48:47.856Z,4.37
2018-12-17T17:51:18.609Z,4.03
2018-12-17T17:53:49.579Z,3.90
2018-12-17T17:56:20.676Z,4.30
2018-12-17T17:58:51.850Z,4.53
2018-12-17T18:01:22.845Z,4.10
2018-12-17T18:03:53.994Z,4.20
2018-12-17T18:06:25.411Z,4.47
2018-12-17T18:08:56.441Z,4.70
2018-12-17T18:11:27.323Z,5.10
2018-12-17T18:13:58.309Z,4.63
2018-12-17T18:16:29.351Z,4.80
2018-12-17T18:19:00.298Z,4.90
2018-12-17T18:21:31.464Z,4.30
2018-12-17T18:24:02.785Z,5.23
2018-12-17T18:26:33.896Z,5.03
2018-12-17T18:29:05.204Z,4.43
2018-12-17T18:31:36.215Z,5.30
2018-12-17T18:34:07.528Z,5.40
2018-12-17T18:36:38.453Z,5.57
2018-12-17T18:39:10.820Z,6.03
2018-12-17T18:41:41.780Z,6.00
2018-12-17T18:44:12.615Z,5.50
2018-12-17T18:46:43.623Z,5.60
2018-12-17T18:49:14.518Z,5.23
2018-12-17T18:51:45.749Z,6.17
2018-12-17T18:54:17.226Z,6.27
2018-12-17T18:56:48.236Z,6.33
2018-12-17T18:59:19.064Z,6.30
2018-12-17T19:01:50.150Z,5.77
2018-12-17T19:04:21.017Z,6.50
2018-12-17T19:06:52.735Z,6.33
2018-12-17T19:09:23.610Z,6.23
2018-12-17T19:11:54.559Z,5.87
2018-12-17T19:14:26.646Z,5.73
2018-12-17T19:16:58.048Z,7.27
2018-12-17T19:19:29.418Z,6.30
2018-12-17T19:22:00.261Z,6.30
2018-12-17T19:24:31.141Z,6.23
2018-12-17T19:27:02.672Z,5.90
2018-12-17T19:29:34.370Z,6.40
2018-12-17T19:32:05.701Z,6.47
2018-12-17T19:34:36.821Z,7.73
2018-12-17T19:37:07.826Z,6.37
2018-12-17T19:39:38.734Z,6.60
2018-12-17T19:42:09.696Z,6.13
2018-12-17T19:44:40.471Z,6.60
2018-12-17T19:47:11.501Z,5.90
2018-12-17T19:49:42.210Z,5.67
2018-12-17T19:52:13.175Z,5.80
2018-12-17T19:54:44.223Z,5.87
2018-12-17T19:57:15.043Z,5.80
2018-12-17T19:59:46.191Z,6.27
2018-12-17T20:02:17.007Z,6.30
2018-12-17T20:04:47.818Z,6.47
2018-12-17T20:07:18.786Z,6.67
2018-12-17T20:09:50.140Z,6.70
2018-12-17T20:12:21.012Z,6.10
2018-12-17T20:14:52.022Z,7.13
2018-12-17T20:17:22.829Z,6.87
2018-12-17T20:19:53.628Z,6.80
2018-12-17T20:22:24.516Z,7.90
2018-12-17T20:24:55.516Z,6.90
2018-12-17T20:27:26.343Z,6.90
2018-12-17T20:29:57.683Z,7.23
2018-12-17T20:32:28.392Z,6.77
2018-12-17T20:35:00.510Z,6.63
2018-12-17T20:37:31.894Z,6.63
2018-12-17T20:40:02.665Z,6.47
2018-12-17T20:42:34.231Z,6.43
2018-12-17T20:45:08.179Z,6.33
2018-12-17T20:47:39.012Z,6.20
2018-12-17T20:50:10.997Z,6.53
2018-12-17T20:52:42.965Z,6.03
2018-12-17T20:55:14.027Z,6.30
2018-12-17T20:57:45.033Z,6.37
2018-12-17T21:00:16.414Z,6.50
2018-12-17T21:02:48.622Z,6.67
2018-12-17T21:05:19.635Z,6.37
2018-12-17T21:07:50.504Z,6.07
2018-12-17T21:10:21.495Z,6.67
2018-12-17T21:12:52.206Z,7.20
2018-12-17T21:15:23.463Z,6.53
2018-12-17T21:17:54.527Z,6.63
2018-12-17T21:20:25.525Z,6.70
2018-12-17T21:22:57.687Z,6.27
2018-12-17T21:25:28.450Z,6.63
2018-12-17T21:27:59.233Z,6.73
2018-12-17T21:30:30.040Z,6.27
2018-12-17T21:33:06.599Z,6.10
2018-12-17T21:35:33.837Z,5.60
2018-12-17T21:38:05.309Z,5.73
2018-12-17T21:40:36.146Z,5.33
2018-12-17T21:43:08.661Z,5.07
2018-12-17T21:45:39.773Z,5.27
2018-12-17T21:48:10.671Z,5.90
2018-12-17T21:50:41.941Z,5.50
2018-12-17T21:53:12.900Z,5.40
2018-12-17T21:55:43.870Z,6.00
2018-12-17T21:58:14.638Z,5.30
2018-12-17T22:00:45.506Z,5.80
2018-12-17T22:03:16.408Z,6.00
2018-12-17T22:05:48.184Z,5.33
2018-12-17T22:08:19.089Z,5.20
2018-12-17T22:10:50.228Z,5.03
2018-12-17T22:13:21.257Z,6.50
2018-12-17T22:15:52.205Z,5.57
2018-12-17T22:18:23.216Z,5.63
2018-12-17T22:20:54.175Z,5.00
2018-12-17T22:23:25.914Z,5.50
2018-12-17T22:25:56.800Z,5.17
2018-12-17T22:28:28.022Z,5.20
2018-12-17T22:30:58.827Z,5.77
2018-12-17T22:33:29.674Z,5.10
2018-12-17T22:36:00.744Z,6.77
2018-12-17T22:38:31.987Z,5.30
2018-12-17T22:41:02.937Z,5.17
2018-12-17T22:43:33.835Z,4.93
2018-12-17T22:46:04.625Z,4.87
2018-12-17T22:48:35.518Z,4.63
2018-12-17T22:51:06.523Z,4.93
2018-12-17T22:53:37.386Z,4.97
2018-12-17T22:56:08.439Z,5.00
2018-12-17T22:58:42.278Z,5.00
2018-12-17T23:01:12.929Z,4.93
2018-12-17T23:03:43.728Z,4.70
2018-12-17T23:06:14.675Z,5.00
2018-12-17T23:09:16.398Z,4.10
2018-12-17T23:12:09.574Z,4.60
2018-12-17T23:14:57.117Z,4.53
2018-12-17T23:17:42.521Z,5.00
2018-12-17T23:20:14.000Z,5.13
2018-12-17T23:22:46.692Z,3.87
2018-12-17T23:25:17.644Z,4.57
2018-12-17T23:27:51.641Z,5.37
2018-12-17T23:30:24.511Z,4.63
2018-12-17T23:32:57.899Z,5.40
2018-12-17T23:35:29.247Z,4.83
2018-12-17T23:38:00.530Z,4.37
2018-12-17T23:40:31.245Z,4.90
2018-12-17T23:43:02.022Z,4.77
2018-12-17T23:45:32.857Z,5.27
2018-12-17T23:48:04.233Z,5.00
2018-12-17T23:50:35.161Z,4.20
2018-12-17T23:53:06.219Z,4.60
2018-12-17T23:55:37.085Z,4.53
2018-12-17T23:58:08.442Z,4.83
